La Vélotoise - 07/08/2016

La Velotoise 130 Km (1910 mD+)

125 participants classés


Retour au Sommaire - Signaler une erreur - Faire défiler





1 2 3 /fin /tout

page suivante ->

Pl Do. Nom - Surname Prénom - Name S-Cat /cat Club - Team TEMPS - Time Km/h /sx
1 109 VERHOEVEN REMI MH 18-29 1 NL 03:44:15 36,4 1
2 96 GANZA LUDOVIC MH 30-39 1 VELO SPORT MONTALBANAIS 03:44:15 36,4 2
3 80 CORBIERE REMI MH 30-39 2 VC ELANCOURT ST QUENTIN EN YVELINES 03:44:17 36,4 3
4 82 LARRIEU GAUTIER MH 18-29 2 SPRINTER CLUB SAINT ANDREEN 03:44:17 36,4 4
5 98 FIACRE NICOLAS MH 40-49 1 NL 03:44:17 36,4 5
6 79 VALERY BENOIT MH 30-39 3 TOULOUSE OLYMPIQUE AEROSPATIALE 03:44:38 36,3 6
7 120 ORTEGA LUDOVIC MH 30-39 4 NL 03:47:02 35,9 7
8 66 COUSTILLERES CHRISTOPHE MH 40-49 2 CASTELMAYRAN VELO CLUB 03:47:02 35,9 8
9 124 DEOBARRO MIKAEL MH 30-39 5 NL 03:47:04 35,9 9
10 51 REP SJOERD MH 30-39 6 CYCLE SPORT GRONINGEN 03:47:08 35,9 10
11 7 COURPET NICOLAS MH 30-39 7 ENTENTE CYCLISTE ST PROJET 03:47:09 35,9 11
12 131 DELPECH SEBASTIEN MH 40-49 3 NL 03:47:09 35,9 12
13 15 POUGET PATRICK MH 50-59 1 ACV AURILLACOIS 03:47:16 35,9 13
14 128 RIVOIRARD GUILLAUME MH 40-49 4 NL 03:48:18 35,7 14
15 97 BARE ANTONY MH 18-29 3 VCA DU BOURGET 03:51:15 35,3 15
16 88 FAURISSON ROLAND MH 65-69 1 NL 03:51:56 35,2 16
17 125 JONCOUX PIERRE MH 30-39 8 NL 03:58:59 34,1 17
18 84 ROUBEYRIE JULIEN MH 30-39 9 VELO CLUB SANSAC ARPAJON 03:59:00 34,1 18
19 64 PLUQUET JEAN-LUC MH 50-59 2 NL 04:00:42 33,9 19
20 58 MICHEL STEPHANE MH 40-49 5 CC BRIVISTE 04:00:58 33,9 20
21 123 PAROLIN FRANCK MH 30-39 10 NL 04:01:25 33,8 21
22 17 STOOVE GILLES MH 30-39 11 VC PAYS DE LA CHATAIGNERAIE 04:01:33 33,8 22
23 103 CORREAS LIBERTO MH 65-69 2 NL 04:01:37 33,8 23
24 29 PINZELLI STEPHANE MH 40-49 6 CYCLO CLUB BOSMIE 04:01:48 33,7 24
25 6 DECROZE FABIEN MH 30-39 12 UC VOIRON 04:01:55 33,7 25
26 12 BOURRIER ALEXANDRE MH 40-49 7 NL 04:02:02 33,7 26
27 90 CORNALI CLEMENT MH 30-39 13 GUIDON BIASSAIS 04:02:05 33,7 27
28 73 DARTHOUX SYLVAIN MH 30-39 14 CYCLO CLUB BOSMIE 04:02:05 33,7 28
29 102 TASSEL ADRIEN MH 18-29 4 NL 04:07:22 33 29
30 74 CAMPAN NICOLAS MH 30-39 15 CAHORS CYCLISME 04:07:28 33 30
31 33 AIMAR PATRICK MH 50-59 3 NL 04:07:35 33 31
32 116 PERRIER FRANCIS MH 50-59 4 NL 04:07:42 32,9 32
33 100 UGUEN TANGUY MH 40-49 8 NL 04:07:49 32,9 33
34 39 DELPY FABIEN MH 30-39 16 NL 04:07:49 32,9 34
35 57 LACOMBE THIERRY MH 50-59 5 CASTELMAYRAN VELO CLUB 04:08:09 32,9 35
36 63 BESSAGUET REMI MH 30-39 17 VELO CLUB NEUILLY 04:09:59 32,6 36
37 14 RENAUDIE DENIS MH 50-59 6 VELO CLUB SULPICIEN 04:10:01 32,6 37
38 89 SERVAES LUC MH 50-59 7 AMICALE CYCLISTE DU GRAND VILLENEUVOIS 47 04:10:02 32,6 38
39 13 LAQUES DAMIEN MH 40-49 9 NL 04:10:07 32,6 39
40 81 CORBIERE BERNARD MH 60-64 1 NL 04:10:08 32,6 40
41 54 GAMBUS MICKAEL MH 30-39 18 GUIDON MACARIEN 04:10:31 32,6 41
42 10 FAUCHER GERARD MH 50-59 8 NL 04:10:36 32,6 42
43 56 RAYNAL OLIVIER MH 40-49 10 NL 04:10:39 32,6 43
44 61 RAMOS CHRISTIAN MH 50-59 9 ARIEGE PYRENNEES TRIATHLON 04:10:40 32,6 44
45 23 WALKER CHRIS MH 40-49 11 NL 04:11:00 32,5 45
46 59 SALINIE FREDERIC MH 30-39 19 ASSOCIATION SPORTIVE ST JUNIEN CYCLOTOUR 04:13:10 32,2 46
47 85 BONNET STEPHANE MH 40-49 12 NL 04:13:21 32,2 47
48 83 VIARGUES PIERRE MH 50-59 10 ENTENTE CYCLISTE LUC PRIMAUBE 04:13:40 32,2 48
49 27 FRAYSSE EDDY MH 40-49 13 NL 04:14:35 32,1 49
50 133 GUIBAL JULIEN MH 18-29 5 NL 04:15:28 31,9 50

Aucun commentaires pour le moment, donnez votre avis, vos impressions avant, pendant! et après la course

Déjà membre? Identifiez-vous pour commenter l'épreuve ou créer un compte